sensor_id;sensor_type;location;lat;lon;timestamp;P1;durP1;ratioP1;P2;durP2;ratioP2
27580;SDS011;63557;52.302;7.964;2023-03-02T00:02:18;36.63;;;18.45;;
27580;SDS011;63557;52.302;7.964;2023-03-02T00:07:02;37.70;;;17.73;;
27580;SDS011;63557;52.302;7.964;2023-03-02T00:12:03;39.38;;;19.40;;
27580;SDS011;63557;52.302;7.964;2023-03-02T00:17:04;40.22;;;20.83;;
27580;SDS011;63557;52.302;7.964;2023-03-02T00:22:04;48.20;;;22.92;;
27580;SDS011;63557;52.302;7.964;2023-03-02T00:27:05;60.72;;;26.13;;
27580;SDS011;63557;52.302;7.964;2023-03-02T00:32:05;56.20;;;25.48;;
27580;SDS011;63557;52.302;7.964;2023-03-02T00:37:06;62.00;;;27.70;;
27580;SDS011;63557;52.302;7.964;2023-03-02T00:42:06;55.05;;;25.23;;
27580;SDS011;63557;52.302;7.964;2023-03-02T00:47:06;60.95;;;26.85;;
27580;SDS011;63557;52.302;7.964;2023-03-02T00:52:07;73.13;;;29.45;;
27580;SDS011;63557;52.302;7.964;2023-03-02T00:57:07;64.90;;;27.10;;
27580;SDS011;63557;52.302;7.964;2023-03-02T01:02:08;73.95;;;29.35;;
27580;SDS011;63557;52.302;7.964;2023-03-02T01:07:12;77.10;;;30.88;;
27580;SDS011;63557;52.302;7.964;2023-03-02T01:12:14;85.63;;;32.38;;
27580;SDS011;63557;52.302;7.964;2023-03-02T01:17:14;79.15;;;31.98;;
27580;SDS011;63557;52.302;7.964;2023-03-02T01:22:15;89.85;;;35.13;;
27580;SDS011;63557;52.302;7.964;2023-03-02T01:27:15;92.40;;;35.40;;
27580;SDS011;63557;52.302;7.964;2023-03-02T01:32:16;106.53;;;37.85;;
27580;SDS011;63557;52.302;7.964;2023-03-02T01:37:16;145.18;;;45.05;;
27580;SDS011;63557;52.302;7.964;2023-03-02T01:42:17;145.50;;;45.10;;
27580;SDS011;63557;52.302;7.964;2023-03-02T01:52:33;148.90;;;46.03;;
27580;SDS011;63557;52.302;7.964;2023-03-02T01:57:37;122.43;;;41.95;;
27580;SDS011;63557;52.302;7.964;2023-03-02T02:02:42;132.07;;;44.13;;
27580;SDS011;63557;52.302;7.964;2023-03-02T02:07:43;125.20;;;44.97;;
27580;SDS011;63557;52.302;7.964;2023-03-02T02:12:43;120.55;;;41.45;;
27580;SDS011;63557;52.302;7.964;2023-03-02T02:17:44;100.00;;;36.60;;
27580;SDS011;63557;52.302;7.964;2023-03-02T02:27:48;99.38;;;39.05;;
27580;SDS011;63557;52.302;7.964;2023-03-02T02:32:49;98.63;;;37.00;;
27580;SDS011;63557;52.302;7.964;2023-03-02T02:37:55;98.47;;;38.72;;
27580;SDS011;63557;52.302;7.964;2023-03-02T02:42:56;86.15;;;34.20;;
27580;SDS011;63557;52.302;7.964;2023-03-02T02:47:57;98.00;;;36.42;;
27580;SDS011;63557;52.302;7.964;2023-03-02T02:52:58;98.90;;;36.42;;
27580;SDS011;63557;52.302;7.964;2023-03-02T02:58:00;88.05;;;36.30;;
27580;SDS011;63557;52.302;7.964;2023-03-02T03:03:09;92.85;;;38.45;;
27580;SDS011;63557;52.302;7.964;2023-03-02T03:13:44;90.83;;;35.83;;
27580;SDS011;63557;52.302;7.964;2023-03-02T03:18:46;82.53;;;35.28;;
27580;SDS011;63557;52.302;7.964;2023-03-02T03:23:48;93.13;;;34.95;;
27580;SDS011;63557;52.302;7.964;2023-03-02T03:28:50;76.55;;;32.13;;
27580;SDS011;63557;52.302;7.964;2023-03-02T03:33:51;77.13;;;33.75;;
27580;SDS011;63557;52.302;7.964;2023-03-02T03:38:52;85.60;;;35.42;;
27580;SDS011;63557;52.302;7.964;2023-03-02T03:43:53;78.80;;;33.40;;
27580;SDS011;63557;52.302;7.964;2023-03-02T03:48:53;74.18;;;34.65;;
27580;SDS011;63557;52.302;7.964;2023-03-02T03:53:54;76.03;;;33.83;;
27580;SDS011;63557;52.302;7.964;2023-03-02T03:59:06;82.65;;;34.70;;
27580;SDS011;63557;52.302;7.964;2023-03-02T04:04:12;86.25;;;35.70;;
27580;SDS011;63557;52.302;7.964;2023-03-02T04:09:13;77.10;;;32.42;;
27580;SDS011;63557;52.302;7.964;2023-03-02T04:14:15;76.78;;;34.40;;
27580;SDS011;63557;52.302;7.964;2023-03-02T04:19:16;79.03;;;33.88;;
27580;SDS011;63557;52.302;7.964;2023-03-02T04:24:20;85.05;;;34.65;;
27580;SDS011;63557;52.302;7.964;2023-03-02T04:29:21;80.28;;;35.70;;
27580;SDS011;63557;52.302;7.964;2023-03-02T04:34:23;90.78;;;37.58;;
27580;SDS011;63557;52.302;7.964;2023-03-02T04:39:27;87.87;;;35.53;;
27580;SDS011;63557;52.302;7.964;2023-03-02T04:44:28;79.93;;;34.97;;
27580;SDS011;63557;52.302;7.964;2023-03-02T04:49:28;71.60;;;32.83;;
27580;SDS011;63557;52.302;7.964;2023-03-02T04:54:28;76.30;;;32.53;;
27580;SDS011;63557;52.302;7.964;2023-03-02T04:59:29;83.72;;;34.22;;
27580;SDS011;63557;52.302;7.964;2023-03-02T05:04:29;81.38;;;34.85;;
27580;SDS011;63557;52.302;7.964;2023-03-02T05:09:30;88.78;;;36.13;;
27580;SDS011;63557;52.302;7.964;2023-03-02T05:14:30;93.20;;;36.65;;
27580;SDS011;63557;52.302;7.964;2023-03-02T05:19:31;73.15;;;34.05;;
27580;SDS011;63557;52.302;7.964;2023-03-02T05:24:31;78.15;;;33.10;;
27580;SDS011;63557;52.302;7.964;2023-03-02T05:29:32;70.82;;;31.98;;
27580;SDS011;63557;52.302;7.964;2023-03-02T05:34:32;85.20;;;35.38;;
27580;SDS011;63557;52.302;7.964;2023-03-02T05:39:32;89.57;;;35.97;;
27580;SDS011;63557;52.302;7.964;2023-03-02T05:44:33;89.38;;;34.92;;
27580;SDS011;63557;52.302;7.964;2023-03-02T05:49:33;94.82;;;37.05;;
27580;SDS011;63557;52.302;7.964;2023-03-02T05:54:33;99.13;;;36.10;;
27580;SDS011;63557;52.302;7.964;2023-03-02T05:59:34;94.22;;;39.17;;
27580;SDS011;63557;52.302;7.964;2023-03-02T06:04:34;99.85;;;38.42;;
27580;SDS011;63557;52.302;7.964;2023-03-02T06:09:42;96.38;;;38.20;;
27580;SDS011;63557;52.302;7.964;2023-03-02T06:14:42;109.30;;;42.33;;
27580;SDS011;63557;52.302;7.964;2023-03-02T06:19:43;98.45;;;40.05;;
27580;SDS011;63557;52.302;7.964;2023-03-02T06:24:43;86.10;;;34.33;;
27580;SDS011;63557;52.302;7.964;2023-03-02T06:29:43;113.25;;;40.63;;
27580;SDS011;63557;52.302;7.964;2023-03-02T06:34:44;103.45;;;39.25;;
27580;SDS011;63557;52.302;7.964;2023-03-02T06:39:44;92.65;;;38.63;;
27580;SDS011;63557;52.302;7.964;2023-03-02T06:44:45;86.72;;;35.78;;
27580;SDS011;63557;52.302;7.964;2023-03-02T06:49:45;93.88;;;37.72;;
27580;SDS011;63557;52.302;7.964;2023-03-02T06:54:45;95.93;;;40.08;;
27580;SDS011;63557;52.302;7.964;2023-03-02T06:59:46;95.40;;;37.17;;
27580;SDS011;63557;52.302;7.964;2023-03-02T07:04:46;102.85;;;39.00;;
27580;SDS011;63557;52.302;7.964;2023-03-02T07:09:47;102.85;;;39.10;;
27580;SDS011;63557;52.302;7.964;2023-03-02T07:14:47;101.75;;;38.85;;
27580;SDS011;63557;52.302;7.964;2023-03-02T07:19:47;93.57;;;40.03;;
27580;SDS011;63557;52.302;7.964;2023-03-02T07:24:48;96.28;;;39.88;;
27580;SDS011;63557;52.302;7.964;2023-03-02T07:29:48;83.20;;;35.25;;
27580;SDS011;63557;52.302;7.964;2023-03-02T07:34:48;92.78;;;37.38;;
27580;SDS011;63557;52.302;7.964;2023-03-02T07:39:49;82.60;;;35.27;;
27580;SDS011;63557;52.302;7.964;2023-03-02T07:44:51;82.78;;;34.35;;
27580;SDS011;63557;52.302;7.964;2023-03-02T07:49:51;82.32;;;33.45;;
27580;SDS011;63557;52.302;7.964;2023-03-02T07:54:51;74.63;;;33.47;;
27580;SDS011;63557;52.302;7.964;2023-03-02T07:59:52;81.53;;;33.17;;
27580;SDS011;63557;52.302;7.964;2023-03-02T08:04:52;71.30;;;32.53;;
27580;SDS011;63557;52.302;7.964;2023-03-02T08:09:53;81.18;;;32.75;;
27580;SDS011;63557;52.302;7.964;2023-03-02T08:14:53;94.80;;;36.17;;
27580;SDS011;63557;52.302;7.964;2023-03-02T08:19:54;75.07;;;34.50;;
27580;SDS011;63557;52.302;7.964;2023-03-02T08:24:54;74.83;;;36.70;;
27580;SDS011;63557;52.302;7.964;2023-03-02T08:29:54;78.53;;;34.88;;
27580;SDS011;63557;52.302;7.964;2023-03-02T08:34:55;79.22;;;35.50;;
27580;SDS011;63557;52.302;7.964;2023-03-02T08:39:56;68.65;;;32.95;;
27580;SDS011;63557;52.302;7.964;2023-03-02T08:44:56;64.82;;;31.30;;
27580;SDS011;63557;52.302;7.964;2023-03-02T08:49:56;60.50;;;30.90;;
27580;SDS011;63557;52.302;7.964;2023-03-02T08:54:57;65.90;;;32.15;;
27580;SDS011;63557;52.302;7.964;2023-03-02T08:59:57;75.63;;;35.55;;
27580;SDS011;63557;52.302;7.964;2023-03-02T09:04:58;74.35;;;36.35;;
27580;SDS011;63557;52.302;7.964;2023-03-02T09:09:58;71.30;;;35.38;;
27580;SDS011;63557;52.302;7.964;2023-03-02T09:14:58;66.03;;;32.67;;
27580;SDS011;63557;52.302;7.964;2023-03-02T09:19:59;59.77;;;29.40;;
27580;SDS011;63557;52.302;7.964;2023-03-02T09:24:59;64.90;;;31.45;;
27580;SDS011;63557;52.302;7.964;2023-03-02T09:29:59;62.17;;;31.25;;
27580;SDS011;63557;52.302;7.964;2023-03-02T09:35:00;62.63;;;30.43;;
27580;SDS011;63557;52.302;7.964;2023-03-02T09:40:00;72.88;;;33.70;;
27580;SDS011;63557;52.302;7.964;2023-03-02T09:50:09;77.97;;;32.17;;
27580;SDS011;63557;52.302;7.964;2023-03-02T09:55:11;69.00;;;33.72;;
27580;SDS011;63557;52.302;7.964;2023-03-02T10:00:29;69.07;;;33.78;;
27580;SDS011;63557;52.302;7.964;2023-03-02T10:05:41;70.97;;;32.45;;
27580;SDS011;63557;52.302;7.964;2023-03-02T10:16:00;65.80;;;34.83;;
27580;SDS011;63557;52.302;7.964;2023-03-02T10:21:04;54.35;;;29.13;;
27580;SDS011;63557;52.302;7.964;2023-03-02T10:31:09;50.03;;;28.52;;
27580;SDS011;63557;52.302;7.964;2023-03-02T10:36:17;52.50;;;28.17;;
27580;SDS011;63557;52.302;7.964;2023-03-02T10:41:25;57.67;;;31.83;;
27580;SDS011;63557;52.302;7.964;2023-03-02T10:46:37;57.88;;;31.23;;
27580;SDS011;63557;52.302;7.964;2023-03-02T10:51:38;52.97;;;31.67;;
27580;SDS011;63557;52.302;7.964;2023-03-02T10:56:42;55.77;;;29.67;;
27580;SDS011;63557;52.302;7.964;2023-03-02T11:01:43;54.72;;;30.58;;
27580;SDS011;63557;52.302;7.964;2023-03-02T11:06:43;59.87;;;29.97;;
27580;SDS011;63557;52.302;7.964;2023-03-02T11:11:48;43.40;;;27.00;;
27580;SDS011;63557;52.302;7.964;2023-03-02T11:16:50;41.17;;;26.30;;
27580;SDS011;63557;52.302;7.964;2023-03-02T11:42:14;36.63;;;25.10;;
27580;SDS011;63557;52.302;7.964;2023-03-02T11:47:17;36.17;;;24.40;;
27580;SDS011;63557;52.302;7.964;2023-03-02T11:52:20;35.20;;;24.15;;
27580;SDS011;63557;52.302;7.964;2023-03-02T11:57:24;35.78;;;24.77;;
27580;SDS011;63557;52.302;7.964;2023-03-02T12:02:25;38.03;;;24.73;;
27580;SDS011;63557;52.302;7.964;2023-03-02T12:07:26;34.45;;;24.17;;
27580;SDS011;63557;52.302;7.964;2023-03-02T12:17:32;32.55;;;23.55;;
27580;SDS011;63557;52.302;7.964;2023-03-02T12:22:33;33.55;;;22.80;;
27580;SDS011;63557;52.302;7.964;2023-03-02T12:27:35;39.38;;;24.88;;
27580;SDS011;63557;52.302;7.964;2023-03-02T12:32:36;37.88;;;23.20;;
27580;SDS011;63557;52.302;7.964;2023-03-02T12:47:38;32.53;;;24.50;;
27580;SDS011;63557;52.302;7.964;2023-03-02T12:52:40;29.92;;;23.17;;
27580;SDS011;63557;52.302;7.964;2023-03-02T12:58:14;31.83;;;23.50;;
27580;SDS011;63557;52.302;7.964;2023-03-02T13:03:11;30.08;;;22.85;;
27580;SDS011;63557;52.302;7.964;2023-03-02T13:08:23;30.05;;;22.55;;
27580;SDS011;63557;52.302;7.964;2023-03-02T13:18:33;26.85;;;21.48;;
27580;SDS011;63557;52.302;7.964;2023-03-02T13:23:35;27.80;;;21.17;;
27580;SDS011;63557;52.302;7.964;2023-03-02T13:28:36;31.53;;;21.33;;
27580;SDS011;63557;52.302;7.964;2023-03-02T13:33:40;28.75;;;21.45;;
27580;SDS011;63557;52.302;7.964;2023-03-02T13:38:44;27.57;;;20.73;;
27580;SDS011;63557;52.302;7.964;2023-03-02T13:43:47;28.73;;;21.05;;
27580;SDS011;63557;52.302;7.964;2023-03-02T13:48:58;24.85;;;19.42;;
27580;SDS011;63557;52.302;7.964;2023-03-02T13:53:59;27.38;;;19.55;;
27580;SDS011;63557;52.302;7.964;2023-03-02T13:59:00;24.45;;;18.33;;
27580;SDS011;63557;52.302;7.964;2023-03-02T14:04:01;25.50;;;18.90;;
27580;SDS011;63557;52.302;7.964;2023-03-02T14:09:02;27.17;;;18.83;;
27580;SDS011;63557;52.302;7.964;2023-03-02T14:14:03;24.88;;;18.17;;
27580;SDS011;63557;52.302;7.964;2023-03-02T14:19:05;23.65;;;19.50;;
27580;SDS011;63557;52.302;7.964;2023-03-02T14:24:05;28.30;;;19.93;;
27580;SDS011;63557;52.302;7.964;2023-03-02T14:29:13;26.88;;;20.55;;
27580;SDS011;63557;52.302;7.964;2023-03-02T14:34:15;31.52;;;21.52;;
27580;SDS011;63557;52.302;7.964;2023-03-02T14:39:20;31.83;;;22.20;;
27580;SDS011;63557;52.302;7.964;2023-03-02T14:44:21;31.03;;;20.37;;
27580;SDS011;63557;52.302;7.964;2023-03-02T14:49:21;33.53;;;23.10;;
27580;SDS011;63557;52.302;7.964;2023-03-02T14:54:22;34.53;;;21.40;;
27580;SDS011;63557;52.302;7.964;2023-03-02T14:59:22;41.20;;;22.27;;
27580;SDS011;63557;52.302;7.964;2023-03-02T15:04:23;34.80;;;22.63;;
27580;SDS011;63557;52.302;7.964;2023-03-02T15:09:23;35.30;;;22.33;;
27580;SDS011;63557;52.302;7.964;2023-03-02T15:14:23;42.97;;;23.43;;
27580;SDS011;63557;52.302;7.964;2023-03-02T15:19:24;37.55;;;22.90;;
27580;SDS011;63557;52.302;7.964;2023-03-02T15:24:24;39.13;;;23.33;;
27580;SDS011;63557;52.302;7.964;2023-03-02T15:29:26;39.67;;;23.73;;
27580;SDS011;63557;52.302;7.964;2023-03-02T15:34:26;48.37;;;25.77;;
27580;SDS011;63557;52.302;7.964;2023-03-02T15:39:26;54.00;;;26.87;;
27580;SDS011;63557;52.302;7.964;2023-03-02T15:44:27;44.10;;;28.80;;
27580;SDS011;63557;52.302;7.964;2023-03-02T15:49:28;46.53;;;28.90;;
27580;SDS011;63557;52.302;7.964;2023-03-02T15:54:31;50.97;;;28.33;;
27580;SDS011;63557;52.302;7.964;2023-03-02T15:59:32;53.13;;;29.60;;
27580;SDS011;63557;52.302;7.964;2023-03-02T16:04:33;55.40;;;31.70;;
27580;SDS011;63557;52.302;7.964;2023-03-02T16:09:33;57.77;;;32.60;;
27580;SDS011;63557;52.302;7.964;2023-03-02T16:14:33;60.93;;;34.13;;
27580;SDS011;63557;52.302;7.964;2023-03-02T16:19:34;59.85;;;34.67;;
27580;SDS011;63557;52.302;7.964;2023-03-02T16:24:34;61.05;;;34.25;;
27580;SDS011;63557;52.302;7.964;2023-03-02T16:29:34;62.77;;;33.73;;
27580;SDS011;63557;52.302;7.964;2023-03-02T16:34:35;62.92;;;32.53;;
27580;SDS011;63557;52.302;7.964;2023-03-02T16:39:35;59.92;;;33.92;;
27580;SDS011;63557;52.302;7.964;2023-03-02T16:44:36;70.38;;;34.90;;
27580;SDS011;63557;52.302;7.964;2023-03-02T16:49:37;68.93;;;36.22;;
27580;SDS011;63557;52.302;7.964;2023-03-02T16:54:37;77.87;;;37.83;;
27580;SDS011;63557;52.302;7.964;2023-03-02T16:59:37;72.70;;;36.38;;
27580;SDS011;63557;52.302;7.964;2023-03-02T17:04:38;74.90;;;37.58;;
27580;SDS011;63557;52.302;7.964;2023-03-02T17:09:38;62.10;;;31.88;;
27580;SDS011;63557;52.302;7.964;2023-03-02T17:14:41;68.22;;;35.00;;
27580;SDS011;63557;52.302;7.964;2023-03-02T17:19:42;71.85;;;36.13;;
27580;SDS011;63557;52.302;7.964;2023-03-02T17:24:42;70.22;;;36.42;;
27580;SDS011;63557;52.302;7.964;2023-03-02T17:29:42;67.85;;;30.23;;
27580;SDS011;63557;52.302;7.964;2023-03-02T17:34:43;64.43;;;31.42;;
27580;SDS011;63557;52.302;7.964;2023-03-02T17:39:43;75.68;;;34.20;;
27580;SDS011;63557;52.302;7.964;2023-03-02T17:44:43;68.53;;;34.80;;
27580;SDS011;63557;52.302;7.964;2023-03-02T17:49:44;75.85;;;36.08;;
27580;SDS011;63557;52.302;7.964;2023-03-02T17:54:44;83.63;;;39.25;;
27580;SDS011;63557;52.302;7.964;2023-03-02T17:59:45;79.27;;;37.23;;
27580;SDS011;63557;52.302;7.964;2023-03-02T18:04:45;83.43;;;38.63;;
27580;SDS011;63557;52.302;7.964;2023-03-02T18:09:46;70.10;;;35.25;;
27580;SDS011;63557;52.302;7.964;2023-03-02T18:14:46;79.72;;;36.70;;
27580;SDS011;63557;52.302;7.964;2023-03-02T18:19:46;79.70;;;36.08;;
27580;SDS011;63557;52.302;7.964;2023-03-02T18:24:47;77.53;;;37.20;;
27580;SDS011;63557;52.302;7.964;2023-03-02T18:29:49;82.00;;;37.10;;
27580;SDS011;63557;52.302;7.964;2023-03-02T18:34:49;83.30;;;37.80;;
27580;SDS011;63557;52.302;7.964;2023-03-02T18:39:50;78.13;;;35.00;;
27580;SDS011;63557;52.302;7.964;2023-03-02T18:44:50;90.75;;;35.55;;
27580;SDS011;63557;52.302;7.964;2023-03-02T18:49:51;83.53;;;32.95;;
27580;SDS011;63557;52.302;7.964;2023-03-02T18:54:51;79.57;;;31.52;;
27580;SDS011;63557;52.302;7.964;2023-03-02T18:59:56;75.00;;;30.73;;
27580;SDS011;63557;52.302;7.964;2023-03-02T19:04:56;82.57;;;34.73;;
27580;SDS011;63557;52.302;7.964;2023-03-02T19:09:57;89.18;;;35.20;;
27580;SDS011;63557;52.302;7.964;2023-03-02T19:14:57;88.10;;;35.40;;
27580;SDS011;63557;52.302;7.964;2023-03-02T19:19:58;91.53;;;37.30;;
27580;SDS011;63557;52.302;7.964;2023-03-02T19:24:58;97.28;;;37.08;;
27580;SDS011;63557;52.302;7.964;2023-03-02T19:29:59;97.30;;;38.80;;
27580;SDS011;63557;52.302;7.964;2023-03-02T19:35:00;91.47;;;35.90;;
27580;SDS011;63557;52.302;7.964;2023-03-02T19:40:01;106.70;;;39.13;;
27580;SDS011;63557;52.302;7.964;2023-03-02T19:45:01;84.60;;;34.63;;
27580;SDS011;63557;52.302;7.964;2023-03-02T19:50:02;89.82;;;37.65;;
27580;SDS011;63557;52.302;7.964;2023-03-02T19:55:03;95.60;;;36.53;;
27580;SDS011;63557;52.302;7.964;2023-03-02T20:00:05;89.55;;;35.53;;
27580;SDS011;63557;52.302;7.964;2023-03-02T20:05:07;103.70;;;39.65;;
27580;SDS011;63557;52.302;7.964;2023-03-02T20:10:08;109.05;;;40.00;;
27580;SDS011;63557;52.302;7.964;2023-03-02T20:15:08;107.30;;;37.58;;
27580;SDS011;63557;52.302;7.964;2023-03-02T20:20:09;86.80;;;35.55;;
27580;SDS011;63557;52.302;7.964;2023-03-02T20:25:10;98.28;;;39.15;;
27580;SDS011;63557;52.302;7.964;2023-03-02T20:30:13;104.47;;;41.60;;
27580;SDS011;63557;52.302;7.964;2023-03-02T20:35:14;107.03;;;43.20;;
27580;SDS011;63557;52.302;7.964;2023-03-02T20:40:15;99.22;;;40.05;;
27580;SDS011;63557;52.302;7.964;2023-03-02T20:45:15;95.07;;;39.25;;
27580;SDS011;63557;52.302;7.964;2023-03-02T20:50:16;91.23;;;37.63;;
27580;SDS011;63557;52.302;7.964;2023-03-02T20:55:18;106.82;;;42.03;;
27580;SDS011;63557;52.302;7.964;2023-03-02T21:00:19;103.07;;;43.65;;
27580;SDS011;63557;52.302;7.964;2023-03-02T21:05:20;102.28;;;41.55;;
27580;SDS011;63557;52.302;7.964;2023-03-02T21:10:23;95.00;;;40.35;;
27580;SDS011;63557;52.302;7.964;2023-03-02T21:15:24;87.78;;;37.40;;
27580;SDS011;63557;52.302;7.964;2023-03-02T21:20:27;90.70;;;37.25;;
27580;SDS011;63557;52.302;7.964;2023-03-02T21:25:27;103.65;;;41.38;;
27580;SDS011;63557;52.302;7.964;2023-03-02T21:30:30;96.17;;;40.30;;
27580;SDS011;63557;52.302;7.964;2023-03-02T21:35:30;94.93;;;40.58;;
27580;SDS011;63557;52.302;7.964;2023-03-02T21:40:35;93.13;;;38.40;;
27580;SDS011;63557;52.302;7.964;2023-03-02T21:45:37;89.63;;;40.65;;
27580;SDS011;63557;52.302;7.964;2023-03-02T21:50:37;99.07;;;41.40;;
27580;SDS011;63557;52.302;7.964;2023-03-02T21:55:38;94.57;;;41.65;;
27580;SDS011;63557;52.302;7.964;2023-03-02T22:00:39;94.00;;;41.83;;
27580;SDS011;63557;52.302;7.964;2023-03-02T22:05:39;91.50;;;41.70;;
27580;SDS011;63557;52.302;7.964;2023-03-02T22:15:44;91.60;;;39.65;;
27580;SDS011;63557;52.302;7.964;2023-03-02T22:20:48;72.78;;;31.77;;
27580;SDS011;63557;52.302;7.964;2023-03-02T22:25:50;94.78;;;38.50;;
27580;SDS011;63557;52.302;7.964;2023-03-02T22:30:51;98.45;;;41.08;;
27580;SDS011;63557;52.302;7.964;2023-03-02T22:35:58;98.18;;;37.88;;
27580;SDS011;63557;52.302;7.964;2023-03-02T22:40:59;101.00;;;38.20;;
27580;SDS011;63557;52.302;7.964;2023-03-02T22:51:14;112.10;;;41.63;;
27580;SDS011;63557;52.302;7.964;2023-03-02T23:01:25;104.68;;;40.45;;
27580;SDS011;63557;52.302;7.964;2023-03-02T23:06:28;105.32;;;42.90;;
27580;SDS011;63557;52.302;7.964;2023-03-02T23:11:30;111.22;;;43.33;;
27580;SDS011;63557;52.302;7.964;2023-03-02T23:16:33;107.90;;;41.42;;
27580;SDS011;63557;52.302;7.964;2023-03-02T23:26:34;116.80;;;41.83;;
27580;SDS011;63557;52.302;7.964;2023-03-02T23:31:34;113.90;;;42.22;;
27580;SDS011;63557;52.302;7.964;2023-03-02T23:36:35;95.17;;;33.53;;
27580;SDS011;63557;52.302;7.964;2023-03-02T23:41:36;98.38;;;37.03;;
27580;SDS011;63557;52.302;7.964;2023-03-02T23:46:37;101.13;;;38.10;;
27580;SDS011;63557;52.302;7.964;2023-03-02T23:51:38;103.53;;;37.35;;
27580;SDS011;63557;52.302;7.964;2023-03-02T23:56:39;98.50;;;37.63;;
